Kecskemet, Hungary
Current Conditions -  °F | °C
As of 1:45 PM on Monday 22 Dec 2014 (Local Time) from LHKE Reporting Station
Clear Clear  
Wind Chill: 37°   Ceiling: Unl
Heat Index: 43°   Visibility: 6mi
Dew Point: 30°   Wind: 9mph
Humidity: 61%   Direction: 250°WSW
Pressure: 30.15"   Gusts: NA
Location:  46.91°N, 19.69°E
Report Text: LHKE 221145Z 25008KT 230V290 CAVOK 06/M01 Q1021 TEMPO -SHRA RMK BLU
Loading
Personal Weather Stations






























Interactive Weather Map New forecast layout! Learn more

10-Day Weather Forecast

Advertisements
Track Severe Weather on mobile